createdAt,value
2019-02-05T00:00:30.037Z,859.13
2019-02-05T00:01:29.900Z,859.13
2019-02-05T00:02:29.757Z,859.11
2019-02-05T00:03:29.728Z,859.12
2019-02-05T00:04:29.481Z,859.10
2019-02-05T00:05:29.343Z,859.08
2019-02-05T00:06:29.203Z,859.06
2019-02-05T00:07:29.063Z,859.08
2019-02-05T00:08:28.925Z,859.07
2019-02-05T00:09:28.787Z,859.13
2019-02-05T00:10:28.649Z,859.08
2019-02-05T00:11:28.509Z,859.08
2019-02-05T00:12:28.415Z,859.07
2019-02-05T00:13:28.233Z,859.06
2019-02-05T00:14:28.095Z,859.05
2019-02-05T00:15:27.953Z,859.06
2019-02-05T00:16:27.822Z,859.07
2019-02-05T00:17:27.679Z,859.05
2019-02-05T00:18:27.536Z,859.11
2019-02-05T00:19:27.403Z,859.08
2019-02-05T00:20:27.261Z,859.12
2019-02-05T00:21:27.121Z,859.11
2019-02-05T00:22:26.984Z,859.14
2019-02-05T00:23:26.846Z,859.12
2019-02-05T00:24:26.706Z,859.15
2019-02-05T00:25:26.569Z,859.14
2019-02-05T00:26:26.431Z,859.13
2019-02-05T00:27:26.290Z,859.12
2019-02-05T00:28:26.153Z,859.11
2019-02-05T00:29:26.016Z,859.11
2019-02-05T00:30:25.895Z,859.12
2019-02-05T00:31:25.736Z,859.12
2019-02-05T00:32:25.598Z,859.11
2019-02-05T00:33:25.574Z,859.13
2019-02-05T00:34:25.338Z,859.11
2019-02-05T00:35:25.182Z,859.14
2019-02-05T00:36:25.043Z,859.14
2019-02-05T00:37:24.904Z,859.15
2019-02-05T00:38:24.768Z,859.13
2019-02-05T00:39:24.632Z,859.11
2019-02-05T00:40:24.491Z,859.18
2019-02-05T00:41:24.354Z,859.12
2019-02-05T00:42:24.210Z,859.13
2019-02-05T00:43:24.073Z,859.13
2019-02-05T00:44:23.983Z,859.13
2019-02-05T00:45:23.796Z,859.12
2019-02-05T00:46:23.656Z,859.13
2019-02-05T00:47:23.517Z,859.10
2019-02-05T00:48:23.379Z,859.13
2019-02-05T00:49:23.243Z,859.13
2019-02-05T00:50:23.101Z,859.15
2019-02-05T00:51:22.964Z,859.14
2019-02-05T00:52:22.828Z,859.15
2019-02-05T00:53:22.688Z,859.17
2019-02-05T00:54:22.547Z,859.18
2019-02-05T00:55:22.410Z,859.18
2019-02-05T00:56:22.272Z,859.18
2019-02-05T00:57:22.133Z,859.18
2019-02-05T00:58:21.995Z,859.20
2019-02-05T00:59:21.856Z,859.17
2019-02-05T01:00:21.717Z,859.16
2019-02-05T01:01:21.579Z,859.17
2019-02-05T01:02:21.439Z,859.17
2019-02-05T01:03:21.302Z,859.18
2019-02-05T01:04:21.167Z,859.19
2019-02-05T01:05:21.026Z,859.18
2019-02-05T01:06:20.886Z,859.20
2019-02-05T01:07:20.749Z,859.19
2019-02-05T01:08:20.609Z,859.17
2019-02-05T01:09:20.473Z,859.19
2019-02-05T01:10:20.337Z,859.19
2019-02-05T01:11:20.192Z,859.21
2019-02-05T01:12:20.055Z,859.22
2019-02-05T01:13:19.922Z,859.23
2019-02-05T01:14:19.837Z,859.20
2019-02-05T01:15:19.641Z,859.21
2019-02-05T01:16:19.502Z,859.25
2019-02-05T01:17:19.363Z,859.24
2019-02-05T01:18:19.223Z,859.26
2019-02-05T01:19:19.092Z,859.24
2019-02-05T01:20:18.946Z,859.24
2019-02-05T01:21:18.810Z,859.25
2019-02-05T01:22:18.671Z,859.25
2019-02-05T01:23:18.531Z,859.27
2019-02-05T01:24:18.392Z,859.28
2019-02-05T01:25:18.255Z,859.28
2019-02-05T01:26:28.715Z,859.30
2019-02-05T01:27:17.977Z,859.32
2019-02-05T01:28:17.838Z,859.33
2019-02-05T01:29:17.701Z,859.32
2019-02-05T01:30:17.560Z,859.31
2019-02-05T01:31:17.425Z,859.31
2019-02-05T01:32:17.288Z,859.27
2019-02-05T01:33:17.147Z,859.24
2019-02-05T01:34:17.007Z,859.26
2019-02-05T01:35:16.870Z,859.25
2019-02-05T01:36:16.730Z,859.25
2019-02-05T01:37:16.591Z,859.22
2019-02-05T01:38:16.454Z,859.20
2019-02-05T01:39:16.322Z,859.22
2019-02-05T01:40:16.176Z,859.19
2019-02-05T01:41:16.039Z,859.21
2019-02-05T01:42:15.900Z,859.21
2019-02-05T01:43:15.760Z,859.23
2019-02-05T01:44:15.620Z,859.22
2019-02-05T01:45:15.482Z,859.19
2019-02-05T01:46:15.342Z,859.20
2019-02-05T01:47:15.283Z,859.20
2019-02-05T01:48:15.066Z,859.21
2019-02-05T01:49:14.928Z,859.16
2019-02-05T01:50:14.789Z,859.16
2019-02-05T01:51:14.649Z,859.16
2019-02-05T01:52:14.513Z,859.16
2019-02-05T01:53:14.378Z,859.13
2019-02-05T01:54:14.232Z,859.15
2019-02-05T01:55:14.096Z,859.13
2019-02-05T01:56:13.959Z,859.08
2019-02-05T01:57:13.817Z,859.05
2019-02-05T01:58:13.678Z,859.07
2019-02-05T01:59:13.541Z,859.07
2019-02-05T02:00:13.399Z,859.05
2019-02-05T02:01:13.262Z,859.09
2019-02-05T02:02:13.127Z,859.04
2019-02-05T02:03:12.986Z,859.03
2019-02-05T02:04:12.846Z,859.05
2019-02-05T02:05:12.706Z,858.98
2019-02-05T02:06:12.568Z,858.98
2019-02-05T02:07:12.428Z,859.02
2019-02-05T02:08:12.289Z,858.99
2019-02-05T02:09:12.153Z,858.93
2019-02-05T02:10:12.011Z,858.91
2019-02-05T02:11:11.873Z,858.90
2019-02-05T02:12:11.733Z,858.85
2019-02-05T02:13:11.594Z,858.84
2019-02-05T02:14:11.458Z,858.87
2019-02-05T02:15:11.317Z,858.83
2019-02-05T02:16:11.178Z,858.80
2019-02-05T02:17:11.038Z,858.82
2019-02-05T02:18:10.909Z,858.80
2019-02-05T02:19:10.762Z,858.77
2019-02-05T02:20:10.625Z,858.73
2019-02-05T02:21:10.482Z,858.77
2019-02-05T02:22:10.348Z,858.76
2019-02-05T02:23:10.205Z,858.72
2019-02-05T02:24:10.070Z,858.76
2019-02-05T02:25:09.928Z,858.73
2019-02-05T02:26:09.787Z,858.72
2019-02-05T02:27:09.649Z,858.73
2019-02-05T02:28:09.514Z,858.72
2019-02-05T02:29:09.372Z,858.70
2019-02-05T02:30:09.238Z,858.71
2019-02-05T02:31:09.093Z,858.70
2019-02-05T02:32:08.957Z,858.71
2019-02-05T02:33:08.816Z,858.69
2019-02-05T02:34:08.692Z,858.74
2019-02-05T02:35:08.538Z,858.71
2019-02-05T02:36:08.400Z,858.66
2019-02-05T02:37:08.261Z,858.68
2019-02-05T02:38:08.120Z,858.66
2019-02-05T02:39:07.982Z,858.65
2019-02-05T02:40:07.843Z,858.63
2019-02-05T02:41:07.708Z,858.64
2019-02-05T02:42:07.567Z,858.65
2019-02-05T02:43:07.427Z,858.66
2019-02-05T02:44:07.298Z,858.65
2019-02-05T02:45:07.149Z,858.65
2019-02-05T02:46:07.016Z,858.66
2019-02-05T02:47:06.873Z,858.61
2019-02-05T02:48:06.734Z,858.62
2019-02-05T02:49:06.596Z,858.59
2019-02-05T02:50:06.459Z,858.57
2019-02-05T02:51:06.318Z,858.58
2019-02-05T02:52:06.182Z,858.54
2019-02-05T02:53:06.041Z,858.54
2019-02-05T02:54:05.900Z,858.58
2019-02-05T02:55:05.770Z,858.52
2019-02-05T02:56:05.622Z,858.54
2019-02-05T02:57:05.489Z,858.53
2019-02-05T02:58:05.344Z,858.50
2019-02-05T02:59:05.211Z,858.55
2019-02-05T03:00:05.076Z,858.57
2019-02-05T03:01:04.931Z,858.54
2019-02-05T03:02:04.790Z,858.53
2019-02-05T03:03:04.653Z,858.53
2019-02-05T03:04:04.516Z,858.53
2019-02-05T03:05:04.374Z,858.49
2019-02-05T03:06:04.235Z,858.52
2019-02-05T03:07:04.097Z,858.47
2019-02-05T03:08:03.963Z,858.50
2019-02-05T03:09:03.818Z,858.48
2019-02-05T03:10:03.680Z,858.52
2019-02-05T03:11:03.538Z,858.53
2019-02-05T03:12:03.407Z,858.55
2019-02-05T03:13:03.262Z,858.51
2019-02-05T03:14:03.122Z,858.54
2019-02-05T03:15:02.984Z,858.52
2019-02-05T03:16:02.847Z,858.56
2019-02-05T03:17:02.709Z,858.52
2019-02-05T03:18:02.571Z,858.54
2019-02-05T03:19:02.430Z,858.52
2019-02-05T03:20:02.290Z,858.50
2019-02-05T03:21:02.152Z,858.51
2019-02-05T03:22:02.013Z,858.53
2019-02-05T03:23:01.880Z,858.48
2019-02-05T03:24:01.739Z,858.48
2019-02-05T03:25:01.596Z,858.50
2019-02-05T03:26:01.457Z,858.48
2019-02-05T03:27:01.319Z,858.46
2019-02-05T03:28:01.180Z,858.49
2019-02-05T03:29:01.065Z,858.51
2019-02-05T03:30:00.904Z,858.50
2019-02-05T03:31:00.774Z,858.49
2019-02-05T03:32:00.642Z,858.48
2019-02-05T03:33:00.493Z,858.50
2019-02-05T03:34:00.361Z,858.50
2019-02-05T03:35:00.389Z,858.47
2019-02-05T03:36:00.071Z,858.50
2019-02-05T03:36:59.931Z,858.46
2019-02-05T03:37:59.792Z,858.46
2019-02-05T03:38:59.660Z,858.44
2019-02-05T03:39:59.517Z,858.44
2019-02-05T03:40:59.376Z,858.47
2019-02-05T03:41:59.238Z,858.47
2019-02-05T03:42:59.098Z,858.43
2019-02-05T03:43:58.964Z,858.41
2019-02-05T03:44:58.821Z,858.44
2019-02-05T03:45:58.689Z,858.46
2019-02-05T03:46:58.543Z,858.45
2019-02-05T03:47:58.406Z,858.41
2019-02-05T03:48:58.269Z,858.39
2019-02-05T03:49:58.127Z,858.37
2019-02-05T03:50:57.989Z,858.38
2019-02-05T03:51:57.854Z,858.36
2019-02-05T03:52:57.713Z,858.33
2019-02-05T03:53:57.575Z,858.30
2019-02-05T03:54:57.506Z,858.31
2019-02-05T03:55:57.300Z,858.35
2019-02-05T03:56:57.157Z,858.32
2019-02-05T03:57:57.024Z,858.35
2019-02-05T03:58:56.890Z,858.34
2019-02-05T03:59:56.741Z,858.35
2019-02-05T04:00:56.629Z,858.36
2019-02-05T04:01:56.462Z,858.33
2019-02-05T04:02:56.323Z,858.38
2019-02-05T04:03:56.184Z,858.35
2019-02-05T04:04:56.072Z,858.39
2019-02-05T04:05:55.905Z,858.38
2019-02-05T04:06:55.767Z,858.40
2019-02-05T04:07:55.629Z,858.39
2019-02-05T04:08:55.491Z,858.42
2019-02-05T04:09:55.352Z,858.44
2019-02-05T04:10:55.213Z,858.40
2019-02-05T04:11:55.077Z,858.43
2019-02-05T04:12:54.937Z,858.45
2019-02-05T04:13:54.800Z,858.46
2019-02-05T04:14:54.660Z,858.43
2019-02-05T04:15:54.599Z,858.42
2019-02-05T04:16:54.382Z,858.43
2019-02-05T04:17:54.245Z,858.46
2019-02-05T04:18:54.106Z,858.46
2019-02-05T04:19:53.967Z,858.50
2019-02-05T04:20:53.829Z,858.50
2019-02-05T04:21:53.689Z,858.47
2019-02-05T04:22:53.597Z,858.48
2019-02-05T04:23:53.413Z,858.48
2019-02-05T04:24:53.275Z,858.46
2019-02-05T04:25:53.137Z,858.43
2019-02-05T04:26:52.994Z,858.47
2019-02-05T04:27:52.857Z,858.42
2019-02-05T04:28:52.721Z,858.40
2019-02-05T04:29:52.595Z,858.41
2019-02-05T04:30:52.440Z,858.43
2019-02-05T04:31:52.302Z,858.43
2019-02-05T04:32:52.164Z,858.42
2019-02-05T04:33:52.024Z,858.44
2019-02-05T04:34:51.887Z,858.48
2019-02-05T04:35:51.747Z,858.45
2019-02-05T04:36:51.609Z,858.47
2019-02-05T04:37:51.469Z,858.47
2019-02-05T04:38:51.328Z,858.52
2019-02-05T04:39:51.191Z,858.49
2019-02-05T04:40:51.054Z,858.46
2019-02-05T04:41:50.914Z,858.47
2019-02-05T04:42:50.776Z,858.45
2019-02-05T04:43:50.685Z,858.45
2019-02-05T04:44:50.499Z,858.45
2019-02-05T04:45:50.358Z,858.43
2019-02-05T04:46:50.220Z,858.43
2019-02-05T04:47:50.082Z,858.43
2019-02-05T04:48:49.950Z,858.43
2019-02-05T04:49:49.803Z,858.44
2019-02-05T04:50:49.665Z,858.46
2019-02-05T04:51:49.526Z,858.47
2019-02-05T04:52:49.388Z,858.52
2019-02-05T04:53:49.254Z,858.51
2019-02-05T04:54:49.152Z,858.53
2019-02-05T04:55:48.972Z,858.52
2019-02-05T04:56:48.841Z,858.61
2019-02-05T04:57:57.032Z,858.59
2019-02-05T04:58:48.575Z,858.63
2019-02-05T04:59:48.418Z,858.66
2019-02-05T05:00:48.277Z,858.63
2019-02-05T05:01:48.149Z,858.62
2019-02-05T05:02:48.004Z,858.62
2019-02-05T05:03:47.862Z,858.63
2019-02-05T05:04:47.724Z,858.64
2019-02-05T05:05:47.586Z,858.64
2019-02-05T05:06:47.452Z,858.67
2019-02-05T05:07:47.309Z,858.65
2019-02-05T05:08:47.172Z,858.65
2019-02-05T05:09:47.032Z,858.63
2019-02-05T05:10:46.890Z,858.62
2019-02-05T05:11:46.754Z,858.65
2019-02-05T05:12:46.613Z,858.61
2019-02-05T05:13:46.474Z,858.59
2019-02-05T05:14:46.335Z,858.64
2019-02-05T05:15:46.201Z,858.65
2019-02-05T05:16:46.057Z,858.68
2019-02-05T05:17:45.918Z,858.68
2019-02-05T05:18:45.779Z,858.68
2019-02-05T05:19:45.640Z,858.74
2019-02-05T05:20:45.504Z,858.75
2019-02-05T05:21:45.361Z,858.76
2019-02-05T05:22:45.238Z,858.80
2019-02-05T05:23:45.256Z,858.78
2019-02-05T05:24:44.965Z,858.76
2019-02-05T05:25:44.807Z,858.79
2019-02-05T05:26:44.675Z,858.78
2019-02-05T05:27:44.534Z,858.83
2019-02-05T05:28:44.389Z,858.76
2019-02-05T05:29:44.253Z,858.76
2019-02-05T05:30:44.112Z,858.73
2019-02-05T05:31:43.975Z,858.77
2019-02-05T05:32:43.833Z,858.82
2019-02-05T05:33:43.700Z,858.79
2019-02-05T05:34:43.627Z,858.82
2019-02-05T05:35:44.599Z,858.79
2019-02-05T05:36:43.279Z,858.78
2019-02-05T05:37:43.138Z,858.84
2019-02-05T05:38:42.998Z,858.84
2019-02-05T05:39:42.863Z,858.89
2019-02-05T05:40:42.723Z,858.91
2019-02-05T05:41:42.583Z,858.95
2019-02-05T05:42:42.468Z,858.93
2019-02-05T05:43:42.413Z,858.97
2019-02-05T05:44:42.165Z,859.01
2019-02-05T05:45:42.027Z,859.02
2019-02-05T05:46:41.887Z,859.07
2019-02-05T05:47:41.749Z,859.12
2019-02-05T05:48:41.612Z,859.15
2019-02-05T05:49:41.471Z,859.15
2019-02-05T05:50:41.333Z,859.21
2019-02-05T05:51:41.195Z,859.18
2019-02-05T05:52:41.056Z,859.20
2019-02-05T05:53:40.917Z,859.18
2019-02-05T05:54:40.782Z,859.20
2019-02-05T05:55:40.644Z,859.19
2019-02-05T05:56:40.499Z,859.22
2019-02-05T05:57:40.363Z,859.20
2019-02-05T05:58:40.226Z,859.21
2019-02-05T05:59:40.083Z,859.21
2019-02-05T06:00:39.945Z,859.20
2019-02-05T06:01:39.809Z,859.22
2019-02-05T06:02:39.973Z,859.18
2019-02-05T06:03:39.530Z,859.19
2019-02-05T06:04:39.391Z,859.15
2019-02-05T06:05:39.254Z,859.12
2019-02-05T06:06:39.113Z,859.14
2019-02-05T06:07:38.972Z,859.08
2019-02-05T06:08:38.841Z,859.09
2019-02-05T06:09:38.767Z,859.08
2019-02-05T06:10:38.559Z,859.09
2019-02-05T06:11:38.421Z,859.10
2019-02-05T06:12:38.281Z,859.09
2019-02-05T06:13:38.143Z,859.11
2019-02-05T06:14:38.004Z,859.12
2019-02-05T06:15:37.862Z,859.11
2019-02-05T06:16:37.724Z,859.16
2019-02-05T06:17:37.587Z,859.18
2019-02-05T06:18:37.445Z,859.18
2019-02-05T06:19:37.308Z,859.18
2019-02-05T06:20:37.172Z,859.19
2019-02-05T06:21:37.030Z,859.22
2019-02-05T06:22:36.893Z,859.24
2019-02-05T06:23:36.847Z,859.21
2019-02-05T06:24:36.614Z,859.23
2019-02-05T06:25:36.534Z,859.22
2019-02-05T06:26:36.334Z,859.25
2019-02-05T06:27:36.197Z,859.23
2019-02-05T06:28:36.058Z,859.26
2019-02-05T06:29:35.920Z,859.27
2019-02-05T06:30:35.781Z,859.29
2019-02-05T06:31:35.656Z,859.24
2019-02-05T06:32:35.505Z,859.30
2019-02-05T06:33:35.369Z,859.25
2019-02-05T06:34:35.227Z,859.31
2019-02-05T06:35:35.087Z,859.29
2019-02-05T06:36:34.984Z,859.26
2019-02-05T06:37:34.810Z,859.29
2019-02-05T06:38:34.677Z,859.24
2019-02-05T06:39:34.535Z,859.24
2019-02-05T06:40:34.432Z,859.26
2019-02-05T06:41:34.254Z,859.25
2019-02-05T06:42:34.118Z,859.25
2019-02-05T06:43:33.978Z,859.27
2019-02-05T06:44:33.840Z,859.27
2019-02-05T06:45:33.697Z,859.25
2019-02-05T06:46:33.560Z,859.27
2019-02-05T06:47:33.420Z,859.27
2019-02-05T06:48:33.282Z,859.28
2019-02-05T06:49:33.142Z,859.27
2019-02-05T06:50:33.004Z,859.22
2019-02-05T06:51:32.866Z,859.27
2019-02-05T06:52:32.728Z,859.27
2019-02-05T06:53:32.587Z,859.23
2019-02-05T06:54:32.449Z,859.25
2019-02-05T06:55:32.310Z,859.23
2019-02-05T06:56:32.171Z,859.29
2019-02-05T06:57:32.035Z,859.29
2019-02-05T06:58:31.893Z,859.26
2019-02-05T06:59:31.755Z,859.28
2019-02-05T07:00:31.616Z,859.30
2019-02-05T07:01:31.480Z,859.30
2019-02-05T07:02:31.342Z,859.30
2019-02-05T07:03:31.207Z,859.32
2019-02-05T07:04:31.062Z,859.29
2019-02-05T07:05:30.923Z,859.31
2019-02-05T07:06:30.784Z,859.30
2019-02-05T07:07:30.648Z,859.29
2019-02-05T07:08:30.508Z,859.31
2019-02-05T07:09:30.376Z,859.31
2019-02-05T07:10:30.237Z,859.34
2019-02-05T07:11:30.093Z,859.35
2019-02-05T07:12:29.952Z,859.36
2019-02-05T07:13:29.813Z,859.38
2019-02-05T07:14:29.674Z,859.40
2019-02-05T07:15:29.535Z,859.39
2019-02-05T07:16:29.396Z,859.41
2019-02-05T07:17:29.259Z,859.43
2019-02-05T07:18:29.123Z,859.44
2019-02-05T07:19:28.980Z,859.41
2019-02-05T07:20:28.855Z,859.44
2019-02-05T07:21:28.705Z,859.46
2019-02-05T07:22:28.565Z,859.48
2019-02-05T07:23:28.428Z,859.48
2019-02-05T07:24:28.291Z,859.45
2019-02-05T07:25:28.148Z,859.47
2019-02-05T07:26:28.011Z,859.46
2019-02-05T07:27:27.871Z,859.51
2019-02-05T07:28:27.734Z,859.49
2019-02-05T07:29:27.595Z,859.52
2019-02-05T07:30:27.470Z,859.48
2019-02-05T07:31:27.330Z,859.49
2019-02-05T07:32:27.180Z,859.54
2019-02-05T07:33:27.041Z,859.53
2019-02-05T07:34:26.902Z,859.61
2019-02-05T07:35:26.765Z,859.56
2019-02-05T07:36:26.633Z,859.56
2019-02-05T07:37:26.487Z,859.58
2019-02-05T07:38:26.347Z,859.60
2019-02-05T07:39:27.616Z,859.62
2019-02-05T07:40:26.071Z,859.58
2019-02-05T07:41:25.932Z,859.64
2019-02-05T07:42:25.794Z,859.58
2019-02-05T07:43:25.657Z,859.58
2019-02-05T07:44:25.519Z,859.62
2019-02-05T07:45:25.378Z,859.59
2019-02-05T07:46:25.243Z,859.56
2019-02-05T07:47:25.102Z,859.55
2019-02-05T07:48:24.960Z,859.56
2019-02-05T07:49:24.824Z,859.50
2019-02-05T07:50:24.684Z,859.55
2019-02-05T07:51:24.545Z,859.56
2019-02-05T07:52:24.406Z,859.55
2019-02-05T07:53:24.266Z,859.52
2019-02-05T07:54:24.130Z,859.51
2019-02-05T07:55:23.990Z,859.55
2019-02-05T07:56:23.851Z,859.57
2019-02-05T07:57:23.712Z,859.54
2019-02-05T07:58:23.573Z,859.60
2019-02-05T07:59:23.436Z,859.59
2019-02-05T08:00:23.307Z,859.60
2019-02-05T08:01:23.160Z,859.65
2019-02-05T08:02:23.018Z,859.66
2019-02-05T08:03:22.879Z,859.68
2019-02-05T08:04:22.742Z,859.68
2019-02-05T08:05:22.604Z,859.68
2019-02-05T08:06:22.463Z,859.66
2019-02-05T08:07:22.327Z,859.64
2019-02-05T08:08:22.192Z,859.62
2019-02-05T08:09:22.049Z,859.67
2019-02-05T08:10:21.910Z,859.66
2019-02-05T08:11:21.773Z,859.68
2019-02-05T08:12:21.635Z,859.68
2019-02-05T08:13:21.496Z,859.66
2019-02-05T08:14:21.382Z,859.68
2019-02-05T08:15:21.218Z,859.75
2019-02-05T08:16:21.080Z,859.78
2019-02-05T08:17:20.944Z,859.75
2019-02-05T08:18:20.802Z,859.79
2019-02-05T08:19:20.666Z,859.82
2019-02-05T08:20:20.530Z,859.81
2019-02-05T08:21:20.386Z,859.87
2019-02-05T08:22:20.250Z,859.83
2019-02-05T08:23:20.118Z,859.82
2019-02-05T08:24:19.973Z,859.83
2019-02-05T08:25:19.834Z,859.84
2019-02-05T08:26:19.810Z,859.84
2019-02-05T08:27:19.560Z,859.83
2019-02-05T08:28:19.422Z,859.84
2019-02-05T08:29:21.819Z,859.84
2019-02-05T08:30:19.145Z,859.86
2019-02-05T08:31:19.009Z,859.84
2019-02-05T08:32:18.869Z,859.80
2019-02-05T08:33:18.864Z,859.81
2019-02-05T08:34:18.603Z,859.79
2019-02-05T08:35:18.455Z,859.78
2019-02-05T08:36:18.317Z,859.79
2019-02-05T08:37:18.184Z,859.79
2019-02-05T08:38:18.042Z,859.76
2019-02-05T08:39:18.073Z,859.74
2019-02-05T08:40:17.767Z,859.78
2019-02-05T08:41:17.629Z,859.76
2019-02-05T08:42:17.493Z,859.82
2019-02-05T08:43:17.356Z,859.85
2019-02-05T08:44:17.220Z,859.83
2019-02-05T08:45:17.082Z,859.85
2019-02-05T08:46:16.945Z,859.88
2019-02-05T08:47:16.805Z,859.87
2019-02-05T08:48:16.670Z,859.90
2019-02-05T08:49:16.532Z,859.93
2019-02-05T08:50:16.396Z,859.93
2019-02-05T08:51:16.259Z,859.91
2019-02-05T08:52:16.124Z,859.91
2019-02-05T08:53:15.989Z,859.92
2019-02-05T08:54:15.857Z,859.96
2019-02-05T08:55:15.718Z,859.92
2019-02-05T08:56:15.583Z,859.99
2019-02-05T08:57:15.446Z,859.98
2019-02-05T08:58:15.313Z,860.02
2019-02-05T08:59:15.179Z,860.01
2019-02-05T09:00:15.046Z,860.01
2019-02-05T09:01:14.911Z,860.04
2019-02-05T09:02:14.778Z,860.03
2019-02-05T09:03:14.644Z,860.04
2019-02-05T09:04:14.511Z,860.03
2019-02-05T09:05:14.381Z,860.01
2019-02-05T09:06:14.245Z,860.00
2019-02-05T09:07:14.114Z,860.01
2019-02-05T09:08:13.982Z,860.03
2019-02-05T09:09:13.924Z,859.99
2019-02-05T09:10:13.715Z,860.00
2019-02-05T09:11:13.583Z,859.96
2019-02-05T09:12:13.530Z,859.99
2019-02-05T09:13:13.324Z,859.97
2019-02-05T09:14:13.436Z,859.92
2019-02-05T09:15:13.058Z,859.97
2019-02-05T09:16:12.932Z,859.95
2019-02-05T09:17:12.795Z,859.97
2019-02-05T09:18:12.664Z,859.93
2019-02-05T09:19:12.533Z,860.01
2019-02-05T09:20:12.401Z,860.01
2019-02-05T09:21:12.270Z,860.00
2019-02-05T09:22:12.142Z,860.01
2019-02-05T09:23:14.278Z,860.02
2019-02-05T09:24:11.879Z,860.02
2019-02-05T09:25:11.750Z,860.03
2019-02-05T09:26:11.619Z,860.04
2019-02-05T09:27:11.486Z,860.03
2019-02-05T09:28:11.356Z,860.04
2019-02-05T09:29:11.225Z,860.08
2019-02-05T09:30:11.096Z,860.09
2019-02-05T09:31:10.967Z,860.11
2019-02-05T09:32:10.836Z,860.12
2019-02-05T09:33:10.706Z,860.12
2019-02-05T09:34:10.574Z,860.13
2019-02-05T09:35:10.446Z,860.12
2019-02-05T09:36:10.315Z,860.13
2019-02-05T09:37:10.183Z,860.14
2019-02-05T09:38:10.055Z,860.16
2019-02-05T09:39:09.925Z,860.22
2019-02-05T09:40:09.796Z,860.17
2019-02-05T09:41:09.666Z,860.19
2019-02-05T09:42:09.536Z,860.21
2019-02-05T09:43:09.406Z,860.18
2019-02-05T09:44:09.277Z,860.19
2019-02-05T09:45:09.145Z,860.22
2019-02-05T09:46:09.017Z,860.20
2019-02-05T09:47:08.890Z,860.19
2019-02-05T09:48:08.764Z,860.17
2019-02-05T09:49:08.630Z,860.19
2019-02-05T09:50:08.498Z,860.18
2019-02-05T09:51:08.381Z,860.21
2019-02-05T09:52:08.242Z,860.21
2019-02-05T09:53:08.130Z,860.25
2019-02-05T09:54:07.979Z,860.27
2019-02-05T09:55:07.848Z,860.26
2019-02-05T09:56:07.718Z,860.26
2019-02-05T09:57:07.587Z,860.27
2019-02-05T09:58:07.458Z,860.23
2019-02-05T09:59:07.327Z,860.29
2019-02-05T10:00:07.199Z,860.31
2019-02-05T10:01:07.070Z,860.27
2019-02-05T10:02:06.941Z,860.26
2019-02-05T10:03:06.826Z,860.30
2019-02-05T10:04:06.680Z,860.30
2019-02-05T10:05:06.556Z,860.30
2019-02-05T10:06:06.438Z,860.26
2019-02-05T10:07:06.295Z,860.30
2019-02-05T10:08:06.163Z,860.31
2019-02-05T10:09:06.047Z,860.27
2019-02-05T10:10:06.058Z,860.26
2019-02-05T10:11:05.772Z,860.26
2019-02-05T10:12:05.642Z,860.25
2019-02-05T10:13:05.509Z,860.27
2019-02-05T10:14:05.379Z,860.28
2019-02-05T10:15:05.254Z,860.24
2019-02-05T10:16:05.120Z,860.24
2019-02-05T10:17:04.990Z,860.28
2019-02-05T10:18:04.861Z,860.26
2019-02-05T10:19:04.731Z,860.29
2019-02-05T10:20:04.602Z,860.29
2019-02-05T10:21:04.471Z,860.33
2019-02-05T10:22:04.342Z,860.31
2019-02-05T10:23:04.319Z,860.29
2019-02-05T10:24:04.081Z,860.29
2019-02-05T10:25:03.952Z,860.30
2019-02-05T10:26:03.825Z,860.30
2019-02-05T10:27:03.691Z,860.31
2019-02-05T10:28:03.563Z,860.31
2019-02-05T10:29:03.432Z,860.31
2019-02-05T10:30:03.321Z,860.34
2019-02-05T10:31:03.176Z,860.32
2019-02-05T10:32:03.048Z,860.34
2019-02-05T10:33:02.911Z,860.34
2019-02-05T10:34:02.790Z,860.28
2019-02-05T10:35:02.656Z,860.28
2019-02-05T10:36:02.527Z,860.29
2019-02-05T10:37:02.396Z,860.28
2019-02-05T10:38:02.268Z,860.28
2019-02-05T10:39:02.138Z,860.30
2019-02-05T10:40:02.012Z,860.25
2019-02-05T10:41:01.999Z,860.28
2019-02-05T10:42:01.755Z,860.27
2019-02-05T10:43:01.624Z,860.29
2019-02-05T10:44:01.494Z,860.23
2019-02-05T10:45:01.382Z,860.25
2019-02-05T10:46:01.239Z,860.27
2019-02-05T10:47:01.114Z,860.24
2019-02-05T10:48:00.983Z,860.27
2019-02-05T10:49:03.281Z,860.22
2019-02-05T10:50:00.730Z,860.28
2019-02-05T10:51:00.595Z,860.21
2019-02-05T10:52:00.477Z,860.26
2019-02-05T10:53:00.341Z,860.26
2019-02-05T10:54:00.212Z,860.27
2019-02-05T10:55:00.126Z,860.29
2019-02-05T10:55:59.958Z,860.29
2019-02-05T10:56:59.824Z,860.31
2019-02-05T10:57:59.708Z,860.38
2019-02-05T10:58:59.574Z,860.34
2019-02-05T11:00:08.554Z,860.33
2019-02-05T11:00:59.311Z,860.34
2019-02-05T11:01:59.309Z,860.37
2019-02-05T11:02:59.061Z,860.37
2019-02-05T11:03:58.927Z,860.37
2019-02-05T11:04:58.820Z,860.39
2019-02-05T11:05:58.671Z,860.38
2019-02-05T11:06:58.543Z,860.40
2019-02-05T11:07:58.420Z,860.45
2019-02-05T11:08:58.289Z,860.44
2019-02-05T11:09:58.161Z,860.42
2019-02-05T11:10:58.034Z,860.43
2019-02-05T11:11:57.907Z,860.39
2019-02-05T11:12:57.777Z,860.42
2019-02-05T11:13:57.651Z,860.39
2019-02-05T11:14:57.527Z,860.40
2019-02-05T11:15:57.397Z,860.40
2019-02-05T11:16:57.269Z,860.39
2019-02-05T11:17:57.141Z,860.40
2019-02-05T11:18:57.018Z,860.43
2019-02-05T11:19:56.887Z,860.42
2019-02-05T11:20:56.757Z,860.39
2019-02-05T11:21:56.634Z,860.34
2019-02-05T11:22:56.512Z,860.35
2019-02-05T11:23:56.472Z,860.36
2019-02-05T11:24:56.247Z,860.33
2019-02-05T11:25:56.118Z,860.31
2019-02-05T11:26:55.993Z,860.33
2019-02-05T11:27:55.863Z,860.34
2019-02-05T11:28:55.737Z,860.33
2019-02-05T11:29:55.628Z,860.34
2019-02-05T11:30:55.482Z,860.31
2019-02-05T11:31:55.352Z,860.33
2019-02-05T11:32:55.230Z,860.30
2019-02-05T11:33:55.093Z,860.28
2019-02-05T11:34:54.972Z,860.28
2019-02-05T11:35:54.949Z,860.27
2019-02-05T11:36:54.710Z,860.28
2019-02-05T11:37:54.581Z,860.29
2019-02-05T11:38:54.453Z,860.30
2019-02-05T11:39:54.327Z,860.29
2019-02-05T11:40:54.209Z,860.30
2019-02-05T11:41:54.126Z,860.28
2019-02-05T11:42:54.009Z,860.31
2019-02-05T11:43:53.812Z,860.28
2019-02-05T11:44:53.728Z,860.26
2019-02-05T11:45:53.554Z,860.27
2019-02-05T11:46:53.426Z,860.26
2019-02-05T11:47:53.298Z,860.26
2019-02-05T11:48:53.182Z,860.25
2019-02-05T11:49:53.043Z,860.21
2019-02-05T11:50:52.910Z,860.24
2019-02-05T11:51:52.787Z,860.23
2019-02-05T11:52:52.666Z,860.29
2019-02-05T11:53:52.532Z,860.26
2019-02-05T11:54:52.405Z,860.26
2019-02-05T11:55:52.272Z,860.28
2019-02-05T11:56:52.146Z,860.28
2019-02-05T11:57:52.014Z,860.26
2019-02-05T11:58:51.888Z,860.33
2019-02-05T11:59:51.757Z,860.30
2019-02-05T12:00:51.650Z,860.30
2019-02-05T12:01:51.503Z,860.35
2019-02-05T12:02:51.371Z,860.32
2019-02-05T12:03:51.242Z,860.29
2019-02-05T12:04:51.115Z,860.32
2019-02-05T12:05:50.986Z,860.29
2019-02-05T12:06:50.863Z,860.34
2019-02-05T12:07:50.728Z,860.32
2019-02-05T12:08:50.599Z,860.30
2019-02-05T12:09:50.470Z,860.29
2019-02-05T12:10:50.342Z,860.23
2019-02-05T12:11:50.215Z,860.22
2019-02-05T12:12:50.085Z,860.25
2019-02-05T12:13:49.961Z,860.22
2019-02-05T12:14:50.570Z,860.23
2019-02-05T12:15:49.700Z,860.23
2019-02-05T12:16:49.572Z,860.21
2019-02-05T12:17:49.441Z,860.23
2019-02-05T12:18:49.313Z,860.27
2019-02-05T12:19:49.184Z,860.26
2019-02-05T12:20:49.054Z,860.22
2019-02-05T12:21:48.927Z,860.21
2019-02-05T12:22:48.801Z,860.18
2019-02-05T12:23:48.668Z,860.21
2019-02-05T12:24:48.543Z,860.20
2019-02-05T12:25:48.411Z,860.18
2019-02-05T12:26:48.285Z,860.19